Time;durP1;ratioP1;P1;durP2;ratioP2;P2;SDS_P1;SDS_P2;PMS_P1;PMS_P2;Temp;Humidity;BMP_temperature;BMP_pressure;BME280_temperature;BME280_humidity;BME280_pressure;Samples;Min_cycle;Max_cycle;Signal;HPM_P1;HPM_P2
2023/05/18 00:00:14;;;;;;;24.38;10.35;;;28.70;94.50;;;;;;5064299;28;20060;-41
2023/05/18 00:02:42;;;;;;;19.75;7.43;;;28.60;94.80;;;;;;5060029;28;20037;-40
2023/05/18 00:05:09;;;;;;;15.00;6.13;;;28.60;94.70;;;;;;5055415;28;20248;-48
2023/05/18 00:07:36;;;;;;;15.00;6.90;;;28.60;94.80;;;;;;5063636;28;20115;-52
2023/05/18 00:10:03;;;;;;;16.95;6.15;;;28.80;94.60;;;;;;5064803;28;20277;-47
2023/05/18 00:12:30;;;;;;;14.88;6.63;;;28.90;94.20;;;;;;5063998;28;20236;-48
2023/05/18 00:14:56;;;;;;;17.23;6.95;;;29.10;93.90;;;;;;5063712;28;20039;-50
2023/05/18 00:17:23;;;;;;;25.10;8.95;;;29.10;93.60;;;;;;5064140;28;20040;-50
2023/05/18 00:19:51;;;;;;;22.15;9.05;;;29.20;93.40;;;;;;5064129;28;20025;-52
2023/05/18 00:22:18;;;;;;;16.23;8.60;;;29.30;93.30;;;;;;5064113;28;20025;-45
2023/05/18 00:24:46;;;;;;;20.80;8.50;;;29.30;93.20;;;;;;5063807;28;20096;-44
2023/05/18 00:27:12;;;;;;;22.73;8.68;;;29.40;93.20;;;;;;5064092;28;20033;-48
2023/05/18 00:29:40;;;;;;;19.35;7.88;;;29.40;93.00;;;;;;5064043;28;20021;-49
2023/05/18 00:32:06;;;;;;;14.10;6.90;;;29.50;93.00;;;;;;5063929;28;20311;-43
2023/05/18 00:34:34;;;;;;;17.48;6.85;;;29.50;92.80;;;;;;5063996;28;20035;-47
2023/05/18 00:37:03;;;;;;;16.42;6.75;;;29.50;92.80;;;;;;5063835;28;20029;-51
2023/05/18 00:39:30;;;;;;;14.45;7.63;;;29.50;92.70;;;;;;5063894;28;20029;-46
2023/05/18 00:41:56;;;;;;;18.20;7.95;;;29.50;92.80;;;;;;5063668;28;20029;-46
2023/05/18 00:44:23;;;;;;;15.27;7.70;;;29.60;92.80;;;;;;5063865;28;20029;-49
2023/05/18 00:46:50;;;;;;;16.50;7.43;;;29.50;92.80;;;;;;5063977;28;20232;-49
2023/05/18 00:49:17;;;;;;;16.95;6.38;;;29.60;92.80;;;;;;5063904;28;20331;-51
2023/05/18 00:51:45;;;;;;;14.30;6.10;;;29.50;92.70;;;;;;5063716;28;20096;-50
2023/05/18 00:54:13;;;;;;;11.35;5.18;;;29.50;92.80;;;;;;5064129;28;20036;-48
2023/05/18 00:56:40;;;;;;;14.00;5.53;;;29.50;92.80;;;;;;5063676;28;20040;-45
2023/05/18 00:59:09;;;;;;;18.50;6.05;;;29.50;92.80;;;;;;5063569;28;20041;-45
2023/05/18 01:01:42;;;;;;;18.92;6.55;;;29.50;92.90;;;;;;5063516;28;20037;-46
2023/05/18 01:04:09;;;;;;;14.75;6.82;;;29.50;93.00;;;;;;5064329;28;20177;-45
2023/05/18 01:06:35;;;;;;;13.68;6.13;;;29.50;93.00;;;;;;5063476;28;20025;-50
2023/05/18 01:09:05;;;;;;;13.25;5.40;;;29.50;93.00;;;;;;5064061;28;20025;-51
2023/05/18 01:11:51;;;;;;;12.77;4.70;;;29.50;93.10;;;;;;5063571;28;20340;-53
2023/05/18 01:14:41;;;;;;;9.57;4.75;;;29.50;93.10;;;;;;5063847;28;20325;-48
2023/05/18 01:17:34;;;;;;;15.65;4.22;;;29.50;93.10;;;;;;5062702;28;20049;-50
2023/05/18 01:20:36;;;;;;;13.57;3.67;;;29.30;93.70;;;;;;5056872;28;20373;-49
2023/05/18 01:23:22;;;;;;;11.60;3.90;;;29.10;94.10;;;;;;5042927;28;20104;-54
2023/05/18 01:25:55;;;;;;;25.02;4.68;;;28.80;94.40;;;;;;5050385;28;20034;-47
2023/05/18 01:28:29;;;;;;;15.75;4.18;;;28.70;94.70;;;;;;5050221;28;20079;-50
2023/05/18 01:30:57;;;;;;;18.27;4.53;;;28.70;95.00;;;;;;5043218;28;20025;-44
2023/05/18 01:33:24;;;;;;;22.35;4.80;;;28.60;95.20;;;;;;5043745;28;20053;-41
2023/05/18 01:35:51;;;;;;;19.88;4.50;;;28.50;95.20;;;;;;5045205;28;20048;-47
2023/05/18 01:38:27;;;;;;;15.23;4.80;;;28.40;95.30;;;;;;5047172;28;20017;-45
2023/05/18 01:41:12;;;;;;;10.70;4.30;;;28.40;95.40;;;;;;5047209;28;20033;-44
2023/05/18 01:44:00;;;;;;;11.05;4.25;;;28.40;95.40;;;;;;5046909;28;20128;-40
2023/05/18 01:46:44;;;;;;;11.25;4.03;;;28.30;95.50;;;;;;5047383;28;20329;-44
2023/05/18 01:49:15;;;;;;;10.27;3.83;;;28.30;95.70;;;;;;5047517;28;20258;-42
2023/05/18 01:51:45;;;;;;;10.05;3.60;;;28.30;95.80;;;;;;5053740;28;20040;-41
2023/05/18 01:54:15;;;;;;;10.15;3.70;;;28.30;96.00;;;;;;5058019;28;20035;-44
2023/05/18 01:56:43;;;;;;;9.57;3.40;;;28.20;96.00;;;;;;5054921;28;20029;-50
2023/05/18 01:59:11;;;;;;;13.55;3.80;;;28.10;96.10;;;;;;5046875;28;20061;-45
2023/05/18 02:01:38;;;;;;;13.10;4.22;;;28.20;96.40;;;;;;5046710;28;20033;-41
2023/05/18 02:04:09;;;;;;;12.02;3.60;;;28.10;96.40;;;;;;5049727;28;20017;-46
2023/05/18 02:06:36;;;;;;;9.85;3.70;;;28.10;96.50;;;;;;5055265;28;20033;-48
2023/05/18 02:09:06;;;;;;;11.00;3.45;;;28.10;96.70;;;;;;5047114;28;20029;-43
2023/05/18 02:11:32;;;;;;;12.57;3.20;;;28.10;96.60;;;;;;5046650;28;20037;-45
2023/05/18 02:14:00;;;;;;;11.55;3.55;;;28.10;96.70;;;;;;5053381;28;20030;-43
2023/05/18 02:16:26;;;;;;;9.73;3.75;;;28.10;96.80;;;;;;5046596;28;20027;-45
2023/05/18 02:18:53;;;;;;;11.45;3.92;;;28.10;96.50;;;;;;5046985;28;20221;-48
2023/05/18 02:21:20;;;;;;;13.73;3.90;;;28.00;96.40;;;;;;5046326;28;20018;-48
2023/05/18 02:23:47;;;;;;;9.73;3.38;;;28.00;96.50;;;;;;5046558;28;20309;-49
2023/05/18 02:26:14;;;;;;;9.77;3.35;;;28.00;96.50;;;;;;5046394;28;20029;-52
2023/05/18 02:28:41;;;;;;;6.63;2.95;;;28.00;96.50;;;;;;5045761;28;20373;-58
2023/05/18 02:31:10;;;;;;;8.05;2.72;;;28.00;96.40;;;;;;5054193;28;20029;-51
2023/05/18 02:33:40;;;;;;;6.18;2.60;;;28.00;96.60;;;;;;5048450;28;20025;-51
2023/05/18 02:36:08;;;;;;;9.68;2.88;;;28.00;96.50;;;;;;5046001;28;20033;-53
2023/05/18 02:38:41;;;;;;;9.45;2.60;;;28.00;96.50;;;;;;5046142;28;20067;-54
2023/05/18 02:41:07;;;;;;;;;;;28.00;96.50;;;;;;5046403;28;20029;-52
2023/05/18 02:43:35;;;;;;;7.47;2.72;;;28.00;96.50;;;;;;5046202;28;19976;-50
2023/05/18 02:46:02;;;;;;;9.20;2.80;;;27.90;96.60;;;;;;5045798;28;20293;-52
2023/05/18 02:48:29;;;;;;;8.30;3.00;;;28.00;96.60;;;;;;5046356;28;20044;-55
2023/05/18 02:50:57;;;;;;;9.48;2.65;;;27.90;96.50;;;;;;5045758;28;20021;-51
2023/05/18 02:53:25;;;;;;;5.97;3.08;;;27.90;96.60;;;;;;5045842;28;20087;-51
2023/05/18 02:55:58;;;;;;;5.93;2.42;;;27.90;96.60;;;;;;5045782;28;20056;-54
2023/05/18 02:58:24;;;;;;;10.13;2.75;;;27.90;96.70;;;;;;5045942;28;20065;-50
2023/05/18 03:00:54;;;;;;;12.45;2.55;;;27.90;96.70;;;;;;5045659;28;20258;-51
2023/05/18 03:03:22;;;;;;;7.18;2.20;;;27.90;96.60;;;;;;5048420;28;20030;-57
2023/05/18 03:05:51;;;;;;;6.25;2.70;;;27.70;96.50;;;;;;5056896;28;20033;-47
2023/05/18 03:08:21;;;;;;;7.05;2.75;;;27.80;96.60;;;;;;5065734;28;20096;-51
2023/05/18 03:10:49;;;;;;;8.65;2.45;;;27.70;96.60;;;;;;5065399;28;20025;-48
2023/05/18 03:13:15;;;;;;;9.20;2.90;;;27.70;96.60;;;;;;5065880;28;20032;-52
2023/05/18 03:15:44;;;;;;;7.95;2.78;;;27.80;96.60;;;;;;5065609;28;20029;-52
2023/05/18 03:18:11;;;;;;;9.30;2.67;;;27.70;96.60;;;;;;5065451;28;20097;-49
2023/05/18 03:20:38;;;;;;;9.52;2.90;;;27.70;96.50;;;;;;5065692;28;20023;-56
2023/05/18 03:23:05;;;;;;;14.18;3.22;;;27.70;96.40;;;;;;5065277;28;20179;-52
2023/05/18 03:25:32;;;;;;;7.72;2.63;;;27.70;96.40;;;;;;5065100;28;20021;-52
2023/05/18 03:27:59;;;;;;;9.35;2.30;;;27.60;96.30;;;;;;5065674;28;20021;-51
2023/05/18 03:30:25;;;;;;;5.93;2.40;;;27.70;96.20;;;;;;5065352;28;20033;-49
2023/05/18 03:32:52;;;;;;;5.55;2.20;;;27.70;96.40;;;;;;5064959;28;20025;-53
2023/05/18 03:35:19;;;;;;;8.93;2.75;;;27.60;96.20;;;;;;5065286;28;20029;-53
2023/05/18 03:37:45;;;;;;;7.82;2.50;;;27.60;96.40;;;;;;5064994;28;20059;-50
2023/05/18 03:40:14;;;;;;;9.48;2.50;;;27.50;96.40;;;;;;5065027;28;20017;-51
2023/05/18 03:42:41;;;;;;;8.45;2.15;;;27.60;96.40;;;;;;5065084;28;20186;-50
2023/05/18 03:45:10;;;;;;;6.93;2.17;;;27.50;96.50;;;;;;5060351;28;20063;-53
2023/05/18 03:47:37;;;;;;;10.60;2.53;;;27.50;96.30;;;;;;5055808;28;20029;-51
2023/05/18 03:50:05;;;;;;;10.18;2.40;;;27.50;96.40;;;;;;5044896;28;20033;-53
2023/05/18 03:52:33;;;;;;;6.00;2.20;;;27.50;96.20;;;;;;5044491;28;20088;-49
2023/05/18 03:55:00;;;;;;;9.63;2.60;;;27.40;96.30;;;;;;5044676;28;20030;-49
2023/05/18 03:57:28;;;;;;;7.90;2.45;;;27.40;96.30;;;;;;5044602;28;20201;-51
2023/05/18 03:59:56;;;;;;;8.05;2.53;;;27.40;96.30;;;;;;5044447;28;20041;-54
2023/05/18 04:02:24;;;;;;;10.32;2.67;;;27.40;96.20;;;;;;5044486;28;20121;-48
2023/05/18 04:04:52;;;;;;;6.20;2.13;;;27.30;96.10;;;;;;5052128;28;20209;-52
2023/05/18 04:07:23;;;;;;;10.02;2.20;;;27.40;96.30;;;;;;5044318;28;20045;-52
2023/05/18 04:09:50;;;;;;;6.65;2.70;;;27.60;96.10;;;;;;5044284;28;20076;-56
2023/05/18 04:12:17;;;;;;;11.40;2.90;;;27.70;95.80;;;;;;5059736;28;20364;-55
2023/05/18 04:14:53;;;;;;;5.50;2.30;;;27.80;95.60;;;;;;5064525;28;20056;-57
2023/05/18 04:17:23;;;;;;;9.05;2.20;;;27.90;95.40;;;;;;5064225;28;20305;-58
2023/05/18 04:19:50;;;;;;;8.35;2.40;;;28.00;95.30;;;;;;5064199;28;20032;-53
2023/05/18 04:22:17;;;;;;;6.47;2.13;;;28.00;95.10;;;;;;5064230;28;20048;-50
2023/05/18 04:24:46;;;;;;;10.38;2.40;;;28.00;94.90;;;;;;5063339;28;20041;-56
2023/05/18 04:27:13;;;;;;;7.25;2.45;;;28.00;94.80;;;;;;5055184;28;20025;-54
2023/05/18 04:29:42;;;;;;;8.07;2.10;;;28.10;94.80;;;;;;5060448;28;20017;-51
2023/05/18 04:32:09;;;;;;;5.20;2.38;;;28.10;94.80;;;;;;5064019;28;20035;-50
2023/05/18 04:34:36;;;;;;;9.68;2.63;;;28.10;94.80;;;;;;5064014;28;20062;-56
2023/05/18 04:37:06;;;;;;;5.70;2.00;;;28.10;94.80;;;;;;5063852;28;20033;-53
2023/05/18 04:39:33;;;;;;;10.45;2.38;;;28.10;94.80;;;;;;5063965;28;20248;-57
2023/05/18 04:42:03;;;;;;;8.43;2.28;;;28.10;94.70;;;;;;5064125;28;20088;-54
2023/05/18 04:44:33;;;;;;;9.95;2.67;;;28.20;94.70;;;;;;5063748;28;20031;-54
2023/05/18 04:47:00;;;;;;;5.35;2.25;;;28.20;94.60;;;;;;5063857;28;20017;-51
2023/05/18 04:49:27;;;;;;;7.45;2.50;;;28.20;94.60;;;;;;5063797;28;20317;-55
2023/05/18 04:51:55;;;;;;;6.93;2.70;;;28.20;94.50;;;;;;5063627;28;20021;-54
2023/05/18 04:54:23;;;;;;;7.65;2.75;;;28.20;94.50;;;;;;5063825;28;20037;-55
2023/05/18 04:56:50;;;;;;;6.13;2.38;;;28.20;94.50;;;;;;5063603;28;20017;-53
2023/05/18 04:59:17;;;;;;;7.85;2.53;;;28.20;94.40;;;;;;5063497;28;20206;-54
2023/05/18 05:01:45;;;;;;;9.20;2.83;;;28.20;94.50;;;;;;5063652;28;20029;-51
2023/05/18 05:04:12;;;;;;;5.93;2.28;;;28.20;94.50;;;;;;5064175;28;20029;-52
2023/05/18 05:06:38;;;;;;;7.10;2.40;;;28.20;94.60;;;;;;5047336;28;20017;-61
2023/05/18 05:09:06;;;;;;;8.25;1.98;;;28.20;94.60;;;;;;5044425;28;20238;-59
2023/05/18 05:11:33;;;;;;;8.23;2.50;;;28.20;94.70;;;;;;5046686;28;20048;-54
2023/05/18 05:14:01;;;;;;;8.50;2.63;;;28.20;94.70;;;;;;5067424;28;20194;-55
2023/05/18 05:16:28;;;;;;;6.75;2.33;;;28.20;94.60;;;;;;5067662;28;20025;-54
2023/05/18 05:18:55;;;;;;;7.70;2.67;;;28.20;94.60;;;;;;5068114;28;20024;-54
2023/05/18 05:21:22;;;;;;;5.82;2.40;;;28.20;94.60;;;;;;5067436;28;20054;-55
2023/05/18 05:23:49;;;;;;;4.85;2.38;;;28.20;94.60;;;;;;5067916;28;20096;-57
2023/05/18 05:26:16;;;;;;;6.18;2.60;;;28.10;94.60;;;;;;5067532;28;20035;-57
2023/05/18 05:28:43;;;;;;;7.72;2.60;;;28.10;94.50;;;;;;5067744;28;20024;-57
2023/05/18 05:31:10;;;;;;;5.85;2.42;;;28.10;94.40;;;;;;5065792;28;20190;-55
2023/05/18 05:33:36;;;;;;;8.05;2.60;;;28.10;94.40;;;;;;5047929;28;20041;-53
2023/05/18 05:36:04;;;;;;;9.02;2.50;;;28.10;94.40;;;;;;5047280;28;20049;-52
2023/05/18 05:38:31;;;;;;;9.75;2.45;;;28.10;94.40;;;;;;5047704;28;20025;-53
2023/05/18 06:10:22;;;;;;;6.88;2.40;;;28.00;95.60;;;;;;5040487;28;20055;-51
2023/05/18 06:12:49;;;;;;;7.18;2.85;;;27.90;95.60;;;;;;5046732;28;20037;-52
2023/05/18 06:15:15;;;;;;;6.80;2.78;;;27.90;95.60;;;;;;5046727;28;20284;-52
2023/05/18 06:17:42;;;;;;;8.27;2.65;;;27.90;95.60;;;;;;5046738;28;20102;-51
2023/05/18 06:20:11;;;;;;;6.47;2.75;;;27.90;95.70;;;;;;5046515;28;20018;-47
2023/05/18 06:22:37;;;;;;;9.40;2.78;;;27.90;95.80;;;;;;5045987;28;20041;-52
2023/05/18 06:25:04;;;;;;;4.55;2.78;;;27.90;95.90;;;;;;5046422;28;20025;-55
2023/05/18 06:27:32;;;;;;;5.07;2.28;;;27.90;95.90;;;;;;5046557;28;20025;-53
2023/05/18 06:29:58;;;;;;;10.35;2.80;;;27.90;96.00;;;;;;5046271;28;20341;-52
2023/05/18 07:09:25;;;;;;;8.70;3.28;;;27.70;96.40;;;;;;5065350;28;20028;-51
2023/05/18 07:11:52;;;;;;;9.82;3.42;;;27.70;96.40;;;;;;5065355;28;20181;-51
2023/05/18 07:14:18;;;;;;;7.72;3.00;;;27.70;96.40;;;;;;5065518;28;20024;-52
2023/05/18 07:16:46;;;;;;;7.72;3.13;;;27.70;96.40;;;;;;5065625;28;20050;-52
2023/05/18 07:19:13;;;;;;;8.30;3.20;;;27.70;96.40;;;;;;5065301;28;20043;-51
2023/05/18 07:21:40;;;;;;;6.43;3.10;;;27.70;96.40;;;;;;5065307;28;20025;-52
2023/05/18 07:24:07;;;;;;;7.90;2.92;;;27.70;96.40;;;;;;5065780;28;20030;-52
2023/05/18 07:26:33;;;;;;;9.02;3.08;;;27.70;96.40;;;;;;5065119;28;20036;-52
2023/05/18 07:29:00;;;;;;;7.47;3.10;;;27.70;96.50;;;;;;5065630;28;20044;-52
2023/05/18 07:31:27;;;;;;;7.43;3.40;;;27.60;96.50;;;;;;5065081;28;20056;-51
2023/05/18 07:33:53;;;;;;;6.72;2.50;;;27.60;96.50;;;;;;5064535;28;20293;-53
2023/05/18 07:36:20;;;;;;;9.40;2.78;;;27.70;96.50;;;;;;5065061;28;20040;-50
2023/05/18 07:38:52;;;;;;;6.53;2.95;;;27.60;96.60;;;;;;5065394;28;20055;-50
2023/05/18 07:41:21;;;;;;;6.40;2.90;;;27.60;96.60;;;;;;5064863;28;20032;-51
2023/05/18 07:43:49;;;;;;;10.35;3.08;;;27.60;96.60;;;;;;5065345;28;20033;-51
2023/05/18 07:46:15;;;;;;;10.35;3.38;;;27.60;96.60;;;;;;5064888;28;20021;-52
2023/05/18 07:48:42;;;;;;;5.22;2.72;;;27.60;96.60;;;;;;5065064;28;20033;-55
2023/05/18 07:51:09;;;;;;;8.98;3.03;;;27.60;96.70;;;;;;5064784;28;20023;-51
2023/05/18 07:53:36;;;;;;;6.53;2.88;;;27.60;96.70;;;;;;5063790;28;20048;-55
2023/05/18 07:56:04;;;;;;;9.50;3.20;;;27.60;96.70;;;;;;5053778;28;20034;-49
2023/05/18 07:58:31;;;;;;;7.85;2.90;;;27.50;96.60;;;;;;5045116;28;20033;-51
2023/05/18 08:00:57;;;;;;;7.22;3.38;;;27.50;96.60;;;;;;5044618;28;20039;-54
2023/05/18 08:03:24;;;;;;;7.20;3.42;;;27.50;96.70;;;;;;5044731;28;20030;-51
2023/05/18 08:05:50;;;;;;;8.57;2.97;;;27.50;96.70;;;;;;5044772;28;20332;-52
2023/05/18 08:08:17;;;;;;;6.25;2.60;;;27.40;96.60;;;;;;5044886;28;20034;-53
2023/05/18 08:10:44;;;;;;;5.88;2.75;;;27.40;96.70;;;;;;5044288;28;20056;-51
2023/05/18 08:13:11;;;;;;;9.05;3.35;;;27.40;96.70;;;;;;5044293;28;20079;-52
2023/05/18 08:15:42;;;;;;;6.85;3.42;;;27.40;96.70;;;;;;5064145;28;20067;-52
2023/05/18 08:18:08;;;;;;;6.40;3.22;;;27.40;96.80;;;;;;5064504;28;20036;-57
2023/05/18 08:20:35;;;;;;;6.68;3.50;;;27.30;96.70;;;;;;5063153;28;20063;-52
2023/05/18 08:23:02;;;;;;;8.82;3.22;;;27.30;96.70;;;;;;5064452;28;20099;-51
2023/05/18 08:25:28;;;;;;;7.07;3.15;;;27.40;96.80;;;;;;5064052;28;20067;-51
2023/05/18 08:27:55;;;;;;;6.80;3.00;;;27.40;96.80;;;;;;5064363;28;20021;-52
2023/05/18 08:30:21;;;;;;;7.03;3.10;;;27.40;96.90;;;;;;5064096;28;20021;-52
2023/05/18 08:32:48;;;;;;;6.60;3.05;;;27.40;96.80;;;;;;5064054;28;20244;-59
2023/05/18 08:35:15;;;;;;;9.23;3.28;;;27.30;96.80;;;;;;5064263;28;20074;-53
2023/05/18 08:37:42;;;;;;;11.38;3.38;;;27.30;96.90;;;;;;5064230;28;20044;-52
2023/05/18 08:40:10;;;;;;;10.10;3.70;;;27.30;96.90;;;;;;5063929;28;20317;-49
2023/05/18 08:42:45;;;;;;;7.35;3.50;;;27.40;97.00;;;;;;5063977;28;20051;-51
2023/05/18 08:45:14;;;;;;;5.05;3.10;;;27.30;97.00;;;;;;5064165;28;20135;-52
2023/05/18 08:47:41;;;;;;;9.10;4.22;;;27.40;97.10;;;;;;5063852;28;20302;-50
2023/05/18 08:50:12;;;;;;;10.52;4.47;;;27.30;97.00;;;;;;5064147;28;20209;-51
2023/05/18 08:52:47;;;;;;;10.00;4.80;;;27.30;97.10;;;;;;5063989;28;20029;-52
2023/05/18 08:55:16;;;;;;;9.23;4.10;;;27.20;97.00;;;;;;5063782;28;20074;-53
2023/05/18 08:57:45;;;;;;;7.80;4.55;;;27.30;97.10;;;;;;5063655;28;20088;-50
2023/05/18 09:00:14;;;;;;;9.95;4.70;;;27.30;97.10;;;;;;5063810;28;20040;-51
2023/05/18 09:02:41;;;;;;;7.90;4.43;;;27.30;97.20;;;;;;5051288;28;20040;-51
2023/05/18 09:05:09;;;;;;;8.55;4.70;;;27.30;97.20;;;;;;5043886;28;20033;-51
2023/05/18 09:07:38;;;;;;;10.38;4.93;;;27.30;97.20;;;;;;5043737;28;20037;-52
2023/05/18 09:10:06;;;;;;;8.30;4.53;;;27.20;97.20;;;;;;5043662;28;20052;-50
2023/05/18 09:12:34;;;;;;;8.50;4.60;;;27.30;97.20;;;;;;5043817;28;20347;-52
2023/05/18 09:15:01;;;;;;;10.00;4.32;;;27.20;97.20;;;;;;5043793;28;20021;-58
2023/05/18 09:17:28;;;;;;;6.20;4.18;;;27.20;97.20;;;;;;5054556;28;20033;-51
2023/05/18 09:19:55;;;;;;;11.15;6.05;;;27.20;97.20;;;;;;5063580;28;20095;-53
2023/05/18 09:22:21;;;;;;;10.27;9.23;;;27.20;97.20;;;;;;5063377;28;20052;-56
2023/05/18 09:24:48;;;;;;;14.43;8.57;;;27.20;97.30;;;;;;5063669;28;20025;-55
2023/05/18 09:27:15;;;;;;;14.27;6.85;;;27.20;97.30;;;;;;5063771;28;20175;-51
2023/05/18 09:29:53;;;;;;;11.38;5.95;;;27.20;97.30;;;;;;5063361;28;20351;-51
2023/05/18 09:32:20;;;;;;;10.57;5.10;;;27.20;97.30;;;;;;5063408;28;20041;-53
2023/05/18 09:34:47;;;;;;;9.80;4.40;;;27.20;97.30;;;;;;5063512;28;20388;-51
2023/05/18 09:37:18;;;;;;;8.95;4.20;;;27.20;97.30;;;;;;5063295;28;20309;-52
2023/05/18 09:39:57;;;;;;;6.22;3.90;;;27.10;97.30;;;;;;5063401;28;20055;-52
2023/05/18 09:42:36;;;;;;;7.63;3.88;;;27.20;97.40;;;;;;5063181;28;20036;-52
2023/05/18 09:45:25;;;;;;;9.23;3.35;;;27.10;97.40;;;;;;5063324;28;20229;-51
2023/05/18 09:47:52;;;;;;;9.15;3.22;;;27.10;97.40;;;;;;5063633;28;20051;-51
2023/05/18 09:50:22;;;;;;;5.68;2.75;;;27.10;97.30;;;;;;5063337;28;20017;-51
2023/05/18 09:52:50;;;;;;;6.95;2.78;;;27.10;97.30;;;;;;5063277;28;20082;-52
2023/05/18 09:55:18;;;;;;;7.18;3.35;;;27.10;97.30;;;;;;5063235;28;20096;-51
2023/05/18 09:57:47;;;;;;;7.05;3.15;;;27.00;97.20;;;;;;5066418;28;20029;-51
2023/05/18 10:00:18;;;;;;;7.85;3.70;;;27.10;97.20;;;;;;5066772;28;20032;-53
2023/05/18 10:02:51;;;;;;;5.22;3.75;;;27.00;97.10;;;;;;5066905;28;20095;-49
2023/05/18 10:05:32;;;;;;;7.50;3.42;;;26.90;97.20;;;;;;5066812;28;20060;-49
2023/05/18 10:07:59;;;;;;;8.23;4.03;;;27.00;97.20;;;;;;5066999;28;20024;-50
2023/05/18 10:10:28;;;;;;;7.63;3.80;;;26.90;97.10;;;;;;5066576;28;20076;-50
2023/05/18 10:12:57;;;;;;;10.43;3.75;;;26.90;97.10;;;;;;5066803;28;20036;-50
2023/05/18 10:15:24;;;;;;;14.57;6.00;;;26.90;97.10;;;;;;5067007;28;20313;-52
2023/05/18 10:17:55;;;;;;;11.45;4.10;;;26.90;97.20;;;;;;5064120;28;20033;-51
2023/05/18 10:20:23;;;;;;;7.00;3.58;;;26.90;97.20;;;;;;5046500;28;20021;-49
2023/05/18 10:22:51;;;;;;;9.30;3.65;;;26.90;97.10;;;;;;5046650;28;20064;-52
2023/05/18 10:25:26;;;;;;;10.63;3.85;;;26.90;97.10;;;;;;5046540;28;20021;-50
2023/05/18 10:28:07;;;;;;;11.13;3.22;;;26.90;97.00;;;;;;5046624;28;20061;-54
2023/05/18 10:30:35;;;;;;;10.52;2.97;;;26.90;97.10;;;;;;5046684;28;20062;-51
2023/05/18 10:33:03;;;;;;;9.15;3.03;;;26.90;97.10;;;;;;5046537;28;20088;-55
2023/05/18 10:35:31;;;;;;;12.68;3.08;;;26.80;97.00;;;;;;5046307;28;20032;-54
2023/05/18 10:38:00;;;;;;;11.25;3.25;;;26.80;97.10;;;;;;5046492;28;20362;-57
2023/05/18 10:40:28;;;;;;;12.13;2.90;;;26.80;97.10;;;;;;5046116;28;20079;-51
2023/05/18 10:42:59;;;;;;;10.02;3.20;;;26.90;97.10;;;;;;5046034;28;20033;-51
2023/05/18 10:45:26;;;;;;;9.13;3.15;;;26.80;97.00;;;;;;5045920;28;20025;-52
2023/05/18 10:47:54;;;;;;;10.20;3.40;;;26.80;97.00;;;;;;5046272;28;20205;-56
2023/05/18 10:50:25;;;;;;;10.85;3.50;;;26.90;97.00;;;;;;5045973;28;20021;-53
2023/05/18 10:52:53;;;;;;;11.15;3.17;;;26.90;97.00;;;;;;5045978;28;20045;-51
2023/05/18 10:55:20;;;;;;;7.00;3.58;;;26.90;97.00;;;;;;5046001;28;20033;-52
2023/05/18 10:57:54;;;;;;;9.23;3.28;;;26.90;97.00;;;;;;5046041;28;20065;-52
2023/05/18 11:00:21;;;;;;;14.18;3.45;;;26.90;97.00;;;;;;5045720;28;20045;-60
2023/05/18 11:02:50;;;;;;;11.95;3.70;;;26.90;97.00;;;;;;5061623;28;20252;-52
2023/05/18 11:05:26;;;;;;;16.08;4.20;;;27.00;97.30;;;;;;5065703;28;20062;-54
2023/05/18 11:08:03;;;;;;;11.32;4.18;;;26.90;97.10;;;;;;5065797;28;20028;-51
2023/05/18 11:10:35;;;;;;;14.02;4.22;;;26.90;97.10;;;;;;5065450;28;20041;-51
2023/05/18 11:13:02;;;;;;;26.08;5.18;;;27.00;97.10;;;;;;5065694;28;20040;-49
2023/05/18 11:16:05;;;;;;;16.67;4.10;;;27.10;97.20;;;;;;5065470;28;20025;-52
2023/05/18 11:18:40;;;;;;;19.45;4.50;;;26.70;97.60;;;;;;5043593;28;20075;-41
2023/05/18 11:21:34;;;;;;;9.43;3.95;;;26.70;98.00;;;;;;5057110;28;20032;-41
2023/05/18 11:24:30;;;;;;;13.27;4.38;;;26.70;98.30;;;;;;5045790;28;20029;-47
2023/05/18 11:27:08;;;;;;;13.43;4.88;;;26.90;98.20;;;;;;5045271;28;20029;-52
2023/05/18 11:29:41;;;;;;;15.93;4.90;;;27.10;97.90;;;;;;5044582;28;20033;-43
2023/05/18 11:32:36;;;;;;;10.18;4.53;;;27.20;97.60;;;;;;5044612;28;20038;-50
2023/05/18 11:35:07;;;;;;;11.13;4.18;;;27.30;97.40;;;;;;5044483;28;20053;-43
2023/05/18 11:37:43;;;;;;;8.90;3.95;;;27.50;97.20;;;;;;5045461;28;20210;-43
2023/05/18 11:40:12;;;;;;;14.00;4.07;;;27.60;97.00;;;;;;5044927;28;20029;-43
2023/05/18 11:42:39;;;;;;;12.50;4.13;;;27.80;96.80;;;;;;5045343;28;20040;-48
2023/05/18 11:45:10;;;;;;;13.10;3.63;;;27.90;96.70;;;;;;5044990;28;20321;-42
2023/05/18 11:47:39;;;;;;;15.27;4.05;;;28.10;96.40;;;;;;5044906;28;20029;-46
2023/05/18 11:50:12;;;;;;;11.35;3.38;;;28.30;96.30;;;;;;5044906;28;20217;-42
2023/05/18 11:52:52;;;;;;;10.48;3.10;;;28.50;95.80;;;;;;5044923;28;20030;-41
2023/05/18 11:55:20;;;;;;;12.68;3.30;;;28.60;95.40;;;;;;5044830;28;20033;-42
2023/05/18 11:57:51;;;;;;;7.32;3.25;;;28.80;95.30;;;;;;5045058;28;20030;-47
2023/05/18 12:00:21;;;;;;;11.57;3.20;;;28.90;94.80;;;;;;5044993;28;20100;-48
2023/05/18 12:02:48;;;;;;;6.15;2.90;;;28.90;94.70;;;;;;5044738;28;20030;-42
2023/05/18 12:05:18;;;;;;;11.55;3.80;;;29.10;94.60;;;;;;5044665;28;20265;-44
2023/05/18 12:07:52;;;;;;;11.60;4.50;;;29.10;94.40;;;;;;5044553;28;20017;-43
2023/05/18 12:10:21;;;;;;;10.00;3.70;;;29.20;94.40;;;;;;5044370;28;20055;-48
2023/05/18 12:12:52;;;;;;;13.00;3.75;;;29.30;94.10;;;;;;5046522;28;20083;-50
2023/05/18 12:15:22;;;;;;;8.98;3.35;;;29.40;94.10;;;;;;5055724;28;20383;-44
2023/05/18 12:17:50;;;;;;;7.45;3.33;;;29.40;94.00;;;;;;5064517;28;20029;-43
2023/05/18 12:20:19;;;;;;;11.68;3.47;;;29.50;93.90;;;;;;5063820;28;20102;-44
2023/05/18 12:22:51;;;;;;;11.02;4.03;;;29.60;93.80;;;;;;5064373;28;20420;-47
2023/05/18 12:25:18;;;;;;;;;;;29.70;93.70;;;;;;5064634;28;20237;-47
2023/05/18 12:27:50;;;;;;;24.77;4.75;;;29.70;93.70;;;;;;5064175;28;19904;-42
2023/05/18 12:30:19;;;;;;;11.30;4.05;;;29.60;93.90;;;;;;5064283;28;20043;-42
2023/05/18 12:32:54;;;;;;;16.15;4.55;;;29.70;93.90;;;;;;5064232;28;20037;-46
2023/05/18 12:35:24;;;;;;;18.75;4.78;;;29.70;93.90;;;;;;5064279;28;20088;-42
2023/05/18 12:37:51;;;;;;;19.05;4.38;;;29.80;93.90;;;;;;5064279;28;20037;-45
2023/05/18 12:40:19;;;;;;;17.80;4.60;;;29.80;93.80;;;;;;5063893;28;20029;-43
2023/05/18 12:42:58;;;;;;;18.88;5.03;;;29.80;93.80;;;;;;5064121;28;20032;-43
2023/05/18 12:45:27;;;;;;;45.78;7.00;;;29.80;93.90;;;;;;5063864;28;20040;-46
2023/05/18 12:47:54;;;;;;;36.30;6.03;;;29.90;93.70;;;;;;5064121;28;20304;-44
2023/05/18 12:50:23;;;;;;;18.45;4.57;;;29.80;93.70;;;;;;5063915;28;20092;-45
2023/05/18 12:52:50;;;;;;;21.00;5.03;;;29.70;93.60;;;;;;5063876;28;20304;-52
2023/05/18 12:55:21;;;;;;;20.35;5.20;;;29.70;93.70;;;;;;5064057;28;20374;-50
2023/05/18 12:58:06;;;;;;;15.77;5.05;;;29.70;93.90;;;;;;5063970;28;20255;-47
2023/05/18 13:00:37;;;;;;;19.52;4.80;;;29.70;93.80;;;;;;5063829;28;20082;-44
2023/05/18 13:03:12;;;;;;;16.95;4.40;;;29.70;93.70;;;;;;5063902;28;20029;-46
2023/05/18 13:05:44;;;;;;;35.13;6.35;;;29.80;93.80;;;;;;5063580;28;20025;-50
2023/05/18 13:08:20;;;;;;;22.80;5.72;;;29.80;93.70;;;;;;5064109;28;20032;-45
2023/05/18 13:10:47;;;;;;;16.30;4.65;;;29.80;93.60;;;;;;5063429;28;20049;-44
2023/05/18 13:13:17;;;;;;;18.58;5.13;;;29.90;93.70;;;;;;5063504;28;20033;-49
2023/05/18 13:15:44;;;;;;;14.68;4.75;;;29.90;93.60;;;;;;5063629;28;20025;-45
2023/05/18 13:18:11;;;;;;;14.75;4.97;;;29.90;93.60;;;;;;5063782;28;20033;-45
2023/05/18 13:20:42;;;;;;;21.05;4.68;;;29.90;93.60;;;;;;5063579;28;20036;-46
2023/05/18 13:23:12;;;;;;;14.55;4.88;;;29.90;93.60;;;;;;5063743;28;20194;-43
2023/05/18 13:25:40;;;;;;;8.98;4.55;;;29.90;93.60;;;;;;5063698;28;20056;-48
2023/05/18 13:28:09;;;;;;;26.90;5.47;;;29.90;93.70;;;;;;5052585;28;20089;-42
2023/05/18 13:30:36;;;;;;;30.80;6.95;;;29.90;93.70;;;;;;5046226;28;20033;-40
2023/05/18 13:33:04;;;;;;;18.67;5.63;;;29.90;93.70;;;;;;5067333;28;20190;-41
2023/05/18 13:35:31;;;;;;;41.15;6.85;;;29.90;93.60;;;;;;5067591;28;20024;-44
2023/05/18 13:37:57;;;;;;;19.42;5.03;;;29.80;93.70;;;;;;5067549;28;20052;-43
2023/05/18 13:40:24;;;;;;;16.73;5.18;;;29.80;93.60;;;;;;5067233;28;20044;-43
2023/05/18 13:42:51;;;;;;;19.88;4.80;;;29.90;93.60;;;;;;5056034;28;20210;-45
2023/05/18 13:45:20;;;;;;;21.98;5.65;;;29.90;93.50;;;;;;5047239;28;20037;-41
2023/05/18 13:47:52;;;;;;;16.77;5.22;;;29.90;93.40;;;;;;5047245;28;20048;-43
2023/05/18 13:50:19;;;;;;;15.40;5.20;;;29.90;93.50;;;;;;5062604;28;20074;-48
2023/05/18 13:52:46;;;;;;;13.65;4.45;;;29.80;93.40;;;;;;5067097;28;20252;-49
2023/05/18 13:55:13;;;;;;;13.88;4.28;;;29.90;93.30;;;;;;5067011;28;20091;-47
2023/05/18 13:57:41;;;;;;;11.43;4.10;;;29.80;93.20;;;;;;5063809;28;20032;-47
2023/05/18 14:00:15;;;;;;;9.20;3.90;;;29.90;93.00;;;;;;5053244;28;20029;-54